createdAt,value
2022-12-08T00:02:03.537Z,100895.61
2022-12-08T00:04:52.471Z,100890.77
2022-12-08T00:07:39.936Z,100887.37
2022-12-08T00:10:39.880Z,100893.39
2022-12-08T00:12:57.648Z,100892.08
2022-12-08T00:15:26.301Z,100897.27
2022-12-08T00:17:54.814Z,100904.28
2022-12-08T00:20:23.454Z,100907.92
2022-12-08T00:22:51.990Z,100910.25
2022-12-08T00:25:20.361Z,100910.42
2022-12-08T00:27:48.741Z,100913.29
2022-12-08T00:30:17.597Z,100906.61
2022-12-08T00:32:45.909Z,100906.96
2022-12-08T00:35:14.391Z,100902.04
2022-12-08T00:37:43.694Z,100901.14
2022-12-08T00:40:12.117Z,100895.98
2022-12-08T00:42:40.348Z,100896.08
2022-12-08T00:45:09.342Z,100894.15
2022-12-08T00:47:37.825Z,100888.95
2022-12-08T00:50:07.406Z,100887.54
2022-12-08T00:52:36.426Z,100890.54
2022-12-08T00:55:05.010Z,100889.71
2022-12-08T00:57:33.352Z,100897.11
2022-12-08T01:00:02.727Z,100900.29
2022-12-08T01:02:33.630Z,100905.87
2022-12-08T01:05:01.907Z,100907.23
2022-12-08T01:07:31.003Z,100908.28
2022-12-08T01:09:59.421Z,100910.11
2022-12-08T01:12:29.656Z,100911.44
2022-12-08T01:15:02.319Z,100916.38
2022-12-08T01:17:31.286Z,100920.19
2022-12-08T01:20:00.282Z,100921.48
2022-12-08T01:22:28.551Z,100916.28
2022-12-08T01:24:57.034Z,100913.67
2022-12-08T01:27:25.926Z,100917.05
2022-12-08T01:29:54.252Z,100911.28
2022-12-08T01:32:22.682Z,100907.09
2022-12-08T01:34:51.686Z,100912.81
2022-12-08T01:37:20.060Z,100915.27
2022-12-08T01:39:48.539Z,100913.32
2022-12-08T01:42:22.151Z,100911.33
2022-12-08T01:44:53.515Z,100915.45
2022-12-08T01:47:23.677Z,100909.98
2022-12-08T01:49:52.127Z,100908.20
2022-12-08T01:52:33.987Z,100908.19
2022-12-08T01:55:04.841Z,100907.98
2022-12-08T01:57:45.592Z,100914.80
2022-12-08T02:00:16.036Z,100919.19
2022-12-08T02:02:48.342Z,100922.05
2022-12-08T02:05:18.108Z,100926.43
2022-12-08T02:07:47.852Z,100923.02
2022-12-08T02:10:20.291Z,100927.97
2022-12-08T02:12:50.671Z,100925.34
2022-12-08T02:15:19.507Z,100926.77
2022-12-08T02:18:02.251Z,100927.06
2022-12-08T02:20:36.031Z,100932.10
2022-12-08T02:23:27.655Z,100938.96
2022-12-08T02:25:56.138Z,100950.48
2022-12-08T02:28:38.812Z,100944.23
2022-12-08T02:31:33.752Z,100934.02
2022-12-08T02:34:17.595Z,100926.52
2022-12-08T02:36:57.650Z,100924.83
2022-12-08T02:39:26.233Z,100926.50
2022-12-08T02:41:54.715Z,100922.49
2022-12-08T02:44:39.864Z,100928.02
2022-12-08T02:47:17.073Z,100930.13
2022-12-08T02:49:45.828Z,100929.57
2022-12-08T02:52:14.241Z,100926.63
2022-12-08T02:54:46.441Z,100920.86
2022-12-08T02:57:26.376Z,100919.30
2022-12-08T03:00:16.167Z,100926.45
2022-12-08T03:02:47.727Z,100932.59
2022-12-08T03:05:16.485Z,100934.10
2022-12-08T03:08:01.172Z,100933.11
2022-12-08T03:10:34.801Z,100937.46
2022-12-08T03:13:06.614Z,100942.66
2022-12-08T03:15:37.025Z,100945.39
2022-12-08T03:18:07.978Z,100949.72
2022-12-08T03:20:38.462Z,100957.38
2022-12-08T03:23:09.035Z,100956.41
2022-12-08T03:25:41.412Z,100955.27
2022-12-08T03:28:10.096Z,100956.42
2022-12-08T03:30:40.422Z,100952.09
2022-12-08T03:33:30.919Z,100955.52
2022-12-08T03:36:00.325Z,100962.74
2022-12-08T03:38:37.098Z,100966.45
2022-12-08T03:41:20.916Z,100964.52
2022-12-08T03:43:53.417Z,100964.02
2022-12-08T03:48:50.728Z,100971.19
2022-12-08T03:51:19.849Z,100973.07
2022-12-08T03:53:48.882Z,100974.52
2022-12-08T03:56:22.379Z,100960.31
2022-12-08T03:58:51.068Z,100955.13
2022-12-08T04:01:19.388Z,100966.33
2022-12-08T04:03:47.787Z,100973.86
2022-12-08T04:06:16.767Z,100977.36
2022-12-08T04:08:45.227Z,100976.45
2022-12-08T04:11:14.192Z,100971.83
2022-12-08T04:13:43.300Z,100966.24
2022-12-08T04:16:19.446Z,100963.16
2022-12-08T04:18:48.098Z,100963.87
2022-12-08T04:21:16.519Z,100968.85
2022-12-08T04:23:45.409Z,100971.85
2022-12-08T04:26:14.559Z,100982.74
2022-12-08T04:28:43.295Z,100993.32
2022-12-08T04:31:11.996Z,100997.45
2022-12-08T04:33:40.565Z,100998.77
2022-12-08T04:36:09.249Z,100999.08
2022-12-08T04:38:37.732Z,100994.77
2022-12-08T04:41:06.520Z,100987.27
2022-12-08T04:43:35.514Z,100974.70
2022-12-08T04:46:06.862Z,100987.09
2022-12-08T04:48:36.732Z,101003.96
2022-12-08T04:51:05.361Z,101002.82
2022-12-08T04:53:33.847Z,100990.28
2022-12-08T04:56:02.534Z,100981.60
2022-12-08T04:58:31.016Z,100976.60
2022-12-08T05:00:59.521Z,100978.73
2022-12-08T05:03:28.872Z,100967.98
2022-12-08T05:05:59.229Z,100969.60
2022-12-08T05:08:28.074Z,100975.91
2022-12-08T05:11:07.861Z,100985.75
2022-12-08T05:13:36.453Z,100989.65
2022-12-08T05:16:09.398Z,100990.27
2022-12-08T05:18:38.496Z,100990.91
2022-12-08T05:21:07.216Z,100999.06
2022-12-08T05:23:35.901Z,100997.49
2022-12-08T05:26:04.360Z,100996.45
2022-12-08T05:28:42.311Z,100989.09
2022-12-08T05:31:13.094Z,100988.17
2022-12-08T05:33:41.717Z,100981.16
2022-12-08T05:36:11.828Z,100984.11
2022-12-08T05:38:40.481Z,100987.71
2022-12-08T05:41:09.509Z,100987.47
2022-12-08T05:43:37.785Z,100991.89
2022-12-08T05:46:07.295Z,100992.17
2022-12-08T05:48:36.387Z,101001.13
2022-12-08T05:51:05.278Z,101005.21
2022-12-08T05:53:34.069Z,100998.33
2022-12-08T05:56:02.652Z,101004.76
2022-12-08T05:58:31.033Z,101001.96
2022-12-08T06:00:59.719Z,100997.95
2022-12-08T06:03:29.667Z,100998.39
2022-12-08T06:05:58.119Z,101003.59
2022-12-08T06:08:26.771Z,101008.63
2022-12-08T06:10:55.595Z,101015.41
2022-12-08T06:13:23.972Z,101013.59
2022-12-08T06:15:52.554Z,101015.27
2022-12-08T06:18:21.144Z,101015.36
2022-12-08T06:20:49.724Z,101022.79
2022-12-08T06:23:17.999Z,101029.35
2022-12-08T06:25:46.481Z,101035.33
2022-12-08T06:28:14.928Z,101040.09
2022-12-08T06:30:43.445Z,101035.65
2022-12-08T06:33:11.927Z,101030.25
2022-12-08T06:35:40.511Z,101038.08
2022-12-08T06:38:09.300Z,101045.80
2022-12-08T06:40:37.681Z,101056.09
2022-12-08T06:43:05.879Z,101055.55
2022-12-08T06:45:34.528Z,101053.20
2022-12-08T06:48:03.022Z,101060.19
2022-12-08T06:50:32.939Z,101077.13
2022-12-08T06:53:05.544Z,101089.16
2022-12-08T06:55:57.736Z,101079.45
2022-12-08T06:58:23.164Z,101069.45
2022-12-08T07:00:51.715Z,101072.02
2022-12-08T07:03:20.015Z,101079.60
2022-12-08T07:05:48.816Z,101086.14
2022-12-08T07:08:17.574Z,101087.78
2022-12-08T07:10:45.935Z,101087.23
2022-12-08T07:13:14.880Z,101090.09
2022-12-08T07:15:43.151Z,101095.13
2022-12-08T07:18:11.432Z,101105.58
2022-12-08T07:20:40.798Z,101104.58
2022-12-08T07:23:09.009Z,101097.84
2022-12-08T07:25:37.592Z,101091.25
2022-12-08T07:28:09.843Z,101087.98
2022-12-08T07:30:38.992Z,101097.31
2022-12-08T07:33:07.545Z,101103.93
2022-12-08T07:35:36.334Z,101090.89
2022-12-08T07:38:04.508Z,101096.68
2022-12-08T07:40:34.219Z,101098.19
2022-12-08T07:43:02.651Z,101098.45
2022-12-08T07:45:31.832Z,101100.64
2022-12-08T07:48:00.589Z,101112.73
2022-12-08T07:50:29.169Z,101111.89
2022-12-08T07:52:57.651Z,101120.31
2022-12-08T07:55:26.235Z,101125.06
2022-12-08T07:57:54.818Z,101119.79
2022-12-08T08:00:23.387Z,101115.86
2022-12-08T08:02:52.129Z,101119.39
2022-12-08T08:05:21.184Z,101120.91
2022-12-08T08:07:49.627Z,101123.69
2022-12-08T08:10:18.468Z,101129.33
2022-12-08T08:12:47.964Z,101126.61
2022-12-08T08:15:18.007Z,101124.31
2022-12-08T08:17:49.485Z,101122.56
2022-12-08T08:20:18.120Z,101124.22
2022-12-08T08:22:50.901Z,101125.53
2022-12-08T08:25:22.556Z,101123.98
2022-12-08T08:27:51.039Z,101121.36
2022-12-08T08:30:20.909Z,101122.17
2022-12-08T08:32:50.152Z,101120.21
2022-12-08T08:35:18.739Z,101119.95
2022-12-08T08:37:49.207Z,101121.90
2022-12-08T08:40:18.367Z,101113.91
2022-12-08T08:42:46.749Z,101107.50
2022-12-08T08:45:15.408Z,101101.02
2022-12-08T08:47:44.116Z,101100.48
2022-12-08T08:50:12.394Z,101102.55
2022-12-08T08:52:41.186Z,101098.95
2022-12-08T08:55:10.087Z,101092.15
2022-12-08T08:57:38.454Z,101085.83
2022-12-08T09:00:08.150Z,101081.70
2022-12-08T09:02:37.569Z,101082.88
2022-12-08T09:05:06.850Z,101077.67
2022-12-08T09:07:35.661Z,101067.21
2022-12-08T09:10:04.756Z,101065.63
2022-12-08T09:12:33.252Z,101069.17
2022-12-08T09:15:01.721Z,101072.88
2022-12-08T09:17:30.611Z,101076.65
2022-12-08T09:19:59.604Z,101069.98
2022-12-08T09:22:27.881Z,101066.84
2022-12-08T09:24:56.978Z,101073.35
2022-12-08T09:27:25.810Z,101075.58
2022-12-08T09:29:54.145Z,101075.77
2022-12-08T09:32:22.580Z,101072.95
2022-12-08T09:34:52.396Z,101062.48
2022-12-08T09:37:20.821Z,101060.87
2022-12-08T09:39:49.309Z,101051.03
2022-12-08T09:42:24.993Z,101052.65
2022-12-08T09:44:55.688Z,101050.71
2022-12-08T09:47:24.272Z,101056.71
2022-12-08T09:50:01.712Z,101055.48
2022-12-08T09:52:34.045Z,101057.55
2022-12-08T09:55:04.772Z,101061.25
2022-12-08T09:57:33.338Z,101060.33
2022-12-08T10:00:05.431Z,101050.16
2022-12-08T10:02:34.724Z,101048.23
2022-12-08T10:05:03.157Z,101044.21
2022-12-08T10:07:34.869Z,101038.48
2022-12-08T10:10:04.027Z,101031.95
2022-12-08T10:12:51.793Z,101031.15
2022-12-08T10:15:32.464Z,101032.05
2022-12-08T10:18:02.375Z,101023.86
2022-12-08T10:20:37.720Z,101017.52
2022-12-08T10:23:06.304Z,101020.52
2022-12-08T10:25:41.645Z,101015.86
2022-12-08T10:28:10.743Z,101015.59
2022-12-08T10:30:39.172Z,101014.77
2022-12-08T10:33:14.159Z,101015.39
2022-12-08T10:35:47.337Z,101012.42
2022-12-08T10:38:38.873Z,101014.85
2022-12-08T10:41:12.885Z,101011.73
2022-12-08T10:43:46.560Z,101007.94
2022-12-08T10:46:16.845Z,101003.72
2022-12-08T10:49:08.643Z,100998.29
2022-12-08T10:51:38.864Z,100998.96
2022-12-08T10:54:30.488Z,101003.98
2022-12-08T10:56:59.176Z,101007.52
2022-12-08T10:59:27.578Z,101010.77
2022-12-08T11:01:57.179Z,101002.85
2022-12-08T11:04:36.716Z,100997.53
2022-12-08T11:07:05.904Z,100996.96
2022-12-08T11:09:48.922Z,101000.31
2022-12-08T11:12:18.125Z,101013.39
2022-12-08T11:14:51.522Z,101019.77
2022-12-08T11:17:22.734Z,101018.95
2022-12-08T11:19:57.396Z,101015.13
2022-12-08T11:22:38.267Z,101008.00
2022-12-08T11:25:18.323Z,101000.90
2022-12-08T11:27:50.977Z,100998.30
2022-12-08T11:30:28.125Z,100998.45
2022-12-08T11:33:20.017Z,100994.03
2022-12-08T11:35:51.877Z,100982.12
2022-12-08T11:38:22.893Z,100978.52
2022-12-08T11:41:00.518Z,100973.39
2022-12-08T11:43:35.007Z,100973.10
2022-12-08T11:46:05.429Z,100982.13
2022-12-08T11:48:39.958Z,100984.48
2022-12-08T11:51:18.814Z,100987.59
2022-12-08T11:53:47.297Z,100990.52
2022-12-08T11:56:35.234Z,100986.42
2022-12-08T11:59:11.293Z,100983.29
2022-12-08T12:01:42.640Z,100978.35
2022-12-08T12:04:20.956Z,100970.73
2022-12-08T12:07:05.105Z,100964.66
2022-12-08T12:09:33.589Z,100955.55
2022-12-08T12:12:20.911Z,100961.48
2022-12-08T12:15:07.926Z,100962.02
2022-12-08T12:17:51.666Z,100957.23
2022-12-08T12:20:20.250Z,100957.91
2022-12-08T12:22:52.113Z,100963.67
2022-12-08T12:25:22.355Z,100964.51
2022-12-08T12:27:57.231Z,100958.61
2022-12-08T12:30:27.886Z,100961.21
2022-12-08T12:33:00.582Z,100961.21
2022-12-08T12:35:32.032Z,100962.71
2022-12-08T12:38:03.177Z,100968.36
2022-12-08T12:40:36.983Z,100964.12
2022-12-08T12:43:06.192Z,100958.98
2022-12-08T12:45:34.979Z,100962.05
2022-12-08T12:48:03.555Z,100968.92
2022-12-08T12:50:34.862Z,100967.96
2022-12-08T12:53:19.469Z,100967.69
2022-12-08T12:55:57.475Z,100970.48
2022-12-08T12:58:29.950Z,100966.48
2022-12-08T13:01:14.168Z,100963.91
2022-12-08T13:03:46.034Z,100963.65
2022-12-08T13:06:15.576Z,100964.16
2022-12-08T13:08:55.592Z,100956.30
2022-12-08T13:11:24.599Z,100948.00
2022-12-08T13:14:06.635Z,100940.13
2022-12-08T13:16:37.822Z,100937.04
2022-12-08T13:19:13.069Z,100936.80
2022-12-08T13:21:41.744Z,100933.08
2022-12-08T13:24:10.482Z,100930.95
2022-12-08T13:26:48.276Z,100934.42
2022-12-08T13:29:16.957Z,100939.55
2022-12-08T13:32:04.151Z,100943.14
2022-12-08T13:34:45.674Z,100949.85
2022-12-08T13:37:21.219Z,100949.54
2022-12-08T13:40:02.507Z,100952.00
2022-12-08T13:42:31.186Z,100951.95
2022-12-08T13:45:24.204Z,100954.21
2022-12-08T13:48:20.854Z,100963.61
2022-12-08T13:54:45.455Z,100976.98
2022-12-08T13:59:21.644Z,100978.08
2022-12-08T14:01:50.543Z,100979.09
2022-12-08T14:07:10.372Z,100964.70
2022-12-08T14:09:39.568Z,100959.90
2022-12-08T14:12:28.427Z,100955.48
2022-12-08T14:15:04.230Z,100956.18
2022-12-08T14:17:33.895Z,100957.44
2022-12-08T14:20:18.451Z,100952.08
2022-12-08T14:22:47.342Z,100956.91
2022-12-08T14:25:16.678Z,100963.17
2022-12-08T14:27:45.532Z,100967.34
2022-12-08T14:30:17.293Z,100968.20
2022-12-08T14:32:48.949Z,100968.80
2022-12-08T14:35:30.008Z,100971.17
2022-12-08T14:38:00.496Z,100969.53
2022-12-08T14:40:40.101Z,100971.73
2022-12-08T14:43:09.007Z,100988.55
2022-12-08T14:45:43.387Z,100993.30
2022-12-08T14:48:28.080Z,100992.71
2022-12-08T14:51:05.668Z,100982.23
2022-12-08T14:53:40.154Z,100981.43
2022-12-08T14:56:17.175Z,100981.17
2022-12-08T14:58:46.350Z,100977.12
2022-12-08T15:01:17.464Z,100979.09
2022-12-08T15:03:51.186Z,100978.00
2022-12-08T15:06:22.665Z,100970.77
2022-12-08T15:08:52.721Z,100963.88
2022-12-08T15:11:21.069Z,100965.54
2022-12-08T15:13:51.087Z,100963.77
2022-12-08T15:16:25.316Z,100965.98
2022-12-08T15:19:02.497Z,100968.69
2022-12-08T15:21:32.815Z,100969.48
2022-12-08T15:24:01.402Z,100971.59
2022-12-08T15:26:40.633Z,100967.33
2022-12-08T15:29:13.622Z,100968.66
2022-12-08T15:31:42.260Z,100969.80
2022-12-08T15:34:10.994Z,100966.13
2022-12-08T15:36:40.298Z,100956.88
2022-12-08T15:39:29.360Z,100944.79
2022-12-08T15:41:58.020Z,100939.88
2022-12-08T15:44:26.528Z,100945.77
2022-12-08T15:46:55.475Z,100950.49
2022-12-08T15:49:24.546Z,100956.41
2022-12-08T15:52:00.602Z,100964.02
2022-12-08T15:54:36.869Z,100965.06
2022-12-08T15:57:20.239Z,100960.70
2022-12-08T15:59:54.248Z,100956.39
2022-12-08T16:02:24.970Z,100951.19
2022-12-08T16:05:40.186Z,100945.78
2022-12-08T16:07:42.930Z,100939.14
2022-12-08T16:10:17.421Z,100938.83
2022-12-08T16:16:00.467Z,100948.56
2022-12-08T16:18:34.664Z,100952.46
2022-12-08T16:23:52.201Z,100952.00
2022-12-08T16:27:13.922Z,100949.73
2022-12-08T16:29:16.724Z,100953.40
2022-12-08T16:31:45.423Z,100957.77
2022-12-08T16:34:13.983Z,100959.20
2022-12-08T16:36:42.363Z,100957.46
2022-12-08T16:39:12.910Z,100955.70
2022-12-08T16:42:00.116Z,100951.88
2022-12-08T16:44:28.801Z,100951.11
2022-12-08T16:46:57.488Z,100956.71
2022-12-08T16:49:25.763Z,100957.57
2022-12-08T16:51:54.451Z,100959.70
2022-12-08T16:54:23.239Z,100955.78
2022-12-08T16:56:51.823Z,100948.16
2022-12-08T16:59:20.203Z,100946.42
2022-12-08T17:01:48.889Z,100945.61
2022-12-08T17:04:32.709Z,100946.08
2022-12-08T17:07:01.832Z,100945.02
2022-12-08T17:09:31.435Z,100943.13
2022-12-08T17:12:03.785Z,100945.48
2022-12-08T17:14:34.957Z,100947.61
2022-12-08T17:17:03.662Z,100948.61
2022-12-08T17:19:32.531Z,100955.17
2022-12-08T17:22:02.725Z,100959.31
2022-12-08T17:24:31.348Z,100957.90
2022-12-08T17:27:04.521Z,100957.03
2022-12-08T17:29:34.461Z,100956.27
2022-12-08T17:32:02.895Z,100958.84
2022-12-08T17:34:31.717Z,100967.25
2022-12-08T17:37:00.506Z,100974.79
2022-12-08T17:39:28.782Z,100981.41
2022-12-08T17:41:57.470Z,100978.92
2022-12-08T17:44:26.260Z,100971.23
2022-12-08T17:46:54.535Z,100965.19
2022-12-08T17:49:25.064Z,100961.39
2022-12-08T17:51:55.507Z,100953.23
2022-12-08T17:54:24.691Z,100954.42
2022-12-08T17:56:53.583Z,100948.87
2022-12-08T17:59:22.371Z,100943.91
2022-12-08T18:01:52.604Z,100937.96
2022-12-08T18:04:21.634Z,100936.31
2022-12-08T18:06:50.143Z,100934.84
2022-12-08T18:09:18.813Z,100926.70
2022-12-08T18:11:47.451Z,100931.62
2022-12-08T18:14:16.687Z,100937.75
2022-12-08T18:16:46.904Z,100943.26
2022-12-08T18:19:15.757Z,100941.30
2022-12-08T18:21:44.344Z,100939.48
2022-12-08T18:24:17.944Z,100938.46
2022-12-08T18:26:47.212Z,100934.08
2022-12-08T18:29:15.622Z,100934.98
2022-12-08T18:31:44.003Z,100940.40
2022-12-08T18:34:12.689Z,100926.89
2022-12-08T18:36:41.683Z,100921.64
2022-12-08T18:39:19.996Z,100918.27
2022-12-08T18:41:48.784Z,100918.79
2022-12-08T18:44:17.472Z,100917.56
2022-12-08T18:46:46.057Z,100922.25
2022-12-08T18:49:16.446Z,100923.84
2022-12-08T18:51:45.170Z,100931.54
2022-12-08T18:54:13.855Z,100929.45
2022-12-08T18:56:42.545Z,100925.20
2022-12-08T18:59:11.844Z,100923.73
2022-12-08T19:01:40.349Z,100925.17
2022-12-08T19:06:58.703Z,100924.94
2022-12-08T19:09:27.276Z,100925.21
2022-12-08T19:11:56.578Z,100919.34
2022-12-08T19:14:28.159Z,100917.36
2022-12-08T19:16:57.984Z,100913.91
2022-12-08T19:19:27.354Z,100904.17
2022-12-08T19:21:56.137Z,100882.92
2022-12-08T19:24:25.062Z,100877.04
2022-12-08T19:26:53.827Z,100880.91
2022-12-08T19:29:22.034Z,100889.73
2022-12-08T19:31:50.644Z,100896.55
2022-12-08T19:34:19.197Z,100892.33
2022-12-08T19:36:47.895Z,100889.54
2022-12-08T19:39:36.249Z,100882.58
2022-12-08T19:42:33.181Z,100881.20
2022-12-08T19:45:04.196Z,100875.84
2022-12-08T19:47:32.921Z,100872.68
2022-12-08T19:50:20.296Z,100875.14
2022-12-08T19:52:49.000Z,100876.07
2022-12-08T19:55:17.414Z,100875.40
2022-12-08T19:57:45.945Z,100871.55
2022-12-08T20:00:14.654Z,100873.97
2022-12-08T20:02:43.125Z,100875.13
2022-12-08T20:05:12.543Z,100880.69
2022-12-08T20:07:41.623Z,100889.10
2022-12-08T20:10:14.697Z,100899.97
2022-12-08T20:12:43.340Z,100899.34
2022-12-08T20:15:12.215Z,100899.52
2022-12-08T20:17:41.413Z,100897.21
2022-12-08T20:20:10.658Z,100893.48
2022-12-08T20:22:39.164Z,100895.67
2022-12-08T20:25:07.836Z,100898.90
2022-12-08T20:27:36.435Z,100893.59
2022-12-08T20:30:05.323Z,100877.66
2022-12-08T20:32:33.615Z,100860.23
2022-12-08T20:35:02.471Z,100852.71
2022-12-08T20:37:31.484Z,100856.27
2022-12-08T20:39:59.969Z,100862.59
2022-12-08T20:42:28.550Z,100854.94
2022-12-08T20:44:57.246Z,100853.58
2022-12-08T20:47:25.788Z,100852.11
2022-12-08T20:49:54.525Z,100851.65
2022-12-08T20:52:23.091Z,100858.43
2022-12-08T20:54:51.687Z,100861.55
2022-12-08T20:57:20.473Z,100858.42
2022-12-08T20:59:49.207Z,100861.33
2022-12-08T21:02:18.055Z,100862.55
2022-12-08T21:04:46.978Z,100870.98
2022-12-08T21:07:15.789Z,100866.35
2022-12-08T21:09:44.534Z,100860.53
2022-12-08T21:12:13.625Z,100859.89
2022-12-08T21:14:42.139Z,100864.92
2022-12-08T21:17:10.656Z,100862.46
2022-12-08T21:19:39.680Z,100864.27
2022-12-08T21:22:08.507Z,100867.65
2022-12-08T21:24:37.880Z,100861.02
2022-12-08T21:27:06.445Z,100855.11
2022-12-08T21:29:35.260Z,100855.24
2022-12-08T21:32:03.858Z,100849.33
2022-12-08T21:34:34.397Z,100850.07
2022-12-08T21:37:03.130Z,100853.38
2022-12-08T21:39:31.824Z,100860.14
2022-12-08T21:42:22.601Z,100863.92
2022-12-08T21:44:51.546Z,100860.34
2022-12-08T21:47:20.194Z,100865.85
2022-12-08T21:49:48.688Z,100866.02
2022-12-08T21:52:17.535Z,100862.13
2022-12-08T21:54:46.421Z,100865.92
2022-12-08T21:57:14.773Z,100868.55
2022-12-08T21:59:43.808Z,100867.77
2022-12-08T22:02:15.573Z,100871.64
2022-12-08T22:04:48.444Z,100879.89
2022-12-08T22:07:17.396Z,100881.78
2022-12-08T22:09:45.877Z,100881.21
2022-12-08T22:12:16.941Z,100888.50
2022-12-08T22:14:45.722Z,100889.30
2022-12-08T22:17:14.331Z,100889.15
2022-12-08T22:19:43.693Z,100884.68
2022-12-08T22:22:12.474Z,100887.87
2022-12-08T22:24:40.910Z,100881.59
2022-12-08T22:27:09.697Z,100878.81
2022-12-08T22:29:38.017Z,100872.47
2022-12-08T22:32:06.499Z,100867.34
2022-12-08T22:34:35.597Z,100869.73
2022-12-08T22:37:04.202Z,100866.07
2022-12-08T22:39:32.758Z,100864.30
2022-12-08T22:42:01.279Z,100862.80
2022-12-08T22:44:30.324Z,100859.38
2022-12-08T22:46:58.776Z,100852.99
2022-12-08T22:49:27.717Z,100845.42
2022-12-08T22:51:56.341Z,100842.86
2022-12-08T22:54:24.837Z,100834.31
2022-12-08T22:56:53.170Z,100832.12
2022-12-08T22:59:21.941Z,100828.90
2022-12-08T23:01:50.419Z,100824.08
2022-12-08T23:04:19.001Z,100816.60
2022-12-08T23:06:48.222Z,100809.86
2022-12-08T23:09:16.762Z,100799.41
2022-12-08T23:11:45.460Z,100787.84
2022-12-08T23:14:13.971Z,100805.06
2022-12-08T23:16:42.494Z,100794.69
2022-12-08T23:19:11.456Z,100780.23
2022-12-08T23:21:40.226Z,100763.66
2022-12-08T23:24:08.727Z,100774.68
2022-12-08T23:26:37.689Z,100769.27
2022-12-08T23:29:06.241Z,100766.07
2022-12-08T23:31:35.004Z,100761.65
2022-12-08T23:34:03.998Z,100758.41
2022-12-08T23:36:32.541Z,100764.08
2022-12-08T23:39:01.040Z,100766.95
2022-12-08T23:41:30.698Z,100774.66
2022-12-08T23:43:59.390Z,100784.55
2022-12-08T23:46:28.187Z,100793.98
2022-12-08T23:48:57.151Z,100795.13
2022-12-08T23:51:25.665Z,100794.53
2022-12-08T23:53:54.706Z,100790.13
2022-12-08T23:56:28.320Z,100794.39
2022-12-08T23:59:00.535Z,100812.42
